Lupton, Arizona
Current Conditions -  °F | °C
As of 4:53 AM on Friday 19 Dec 2014 (Local Time) from KGUP Reporting Station
Haze Haze  
Wind Chill: 22°   Ceiling: 200
Heat Index: 22°   Visibility: 0.25mi
Dew Point: 17°   Wind: 0mph
Humidity: 82%   Direction: NA
Pressure: 30.2"   Gusts: NA
Location:  35.35°N, 109.06°W
Report Text: KGUP 191153Z AUTO 00000KT 1/4SM HZ VV002 M06/M08 A3020 RMK AO2 SLP265 70001 I1000 I6000 T10561083 11039 21061 58001 $
Loading
Personal Weather Stations






























Interactive Weather Map New forecast layout! Learn more

10-Day Weather Forecast

Advertisements
Track Severe Weather on mobile